Time;durP1;ratioP1;P1;durP2;ratioP2;P2;SDS_P1;SDS_P2;PMS_P1;PMS_P2;Temp;Humidity;BMP_temperature;BMP_pressure;BME280_temperature;BME280_humidity;BME280_pressure;Samples;Min_cycle;Max_cycle;Signal;HPM_P1;HPM_P2
2022/03/25 00:01:55;;;;;;;16.17;4.95;;;10.90;46.50;;;;;;5109243;27;20059;-74
2022/03/25 00:07:27;;;;;;;15.23;4.82;;;10.60;47.50;;;;;;5563806;23;20059;-74
2022/03/25 00:09:54;;;;;;;15.85;5.68;;;10.60;47.30;;;;;;4919306;29;20051;-74
2022/03/25 00:12:22;;;;;;;12.45;5.00;;;10.60;47.50;;;;;;4927611;28;20191;-74
2022/03/25 00:14:49;;;;;;;12.88;5.40;;;10.40;47.50;;;;;;4918153;29;20054;-74
2022/03/25 00:17:16;;;;;;;12.70;5.97;;;10.50;47.10;;;;;;4912436;29;20055;-74
2022/03/25 00:19:43;;;;;;;16.38;6.40;;;10.20;48.00;;;;;;4895390;29;20599;-74
2022/03/25 00:22:10;;;;;;;14.38;5.40;;;10.10;48.50;;;;;;4909568;29;20051;-74
2022/03/25 00:24:37;;;;;;;13.88;5.60;;;10.00;48.50;;;;;;4914632;28;20059;-74
2022/03/25 00:27:05;;;;;;;13.50;5.07;;;10.10;48.10;;;;;;4913532;29;20051;-74
2022/03/25 00:29:32;;;;;;;14.20;5.40;;;10.10;48.20;;;;;;4916823;29;20052;-74
2022/03/25 00:32:00;;;;;;;13.23;5.70;;;10.20;48.20;;;;;;4912190;29;22580;-74
2022/03/25 00:34:27;;;;;;;15.65;5.78;;;10.00;49.40;;;;;;4910401;29;20060;-74
2022/03/25 00:36:55;;;;;;;15.35;4.82;;;10.00;48.40;;;;;;4896765;29;22293;-74
2022/03/25 00:39:22;;;;;;;11.75;5.10;;;9.90;48.80;;;;;;4897883;29;20060;-74
2022/03/25 00:41:49;;;;;;;12.75;5.05;;;9.80;49.00;;;;;;4925525;28;20402;-74
2022/03/25 00:44:18;;;;;;;17.35;5.35;;;9.70;49.30;;;;;;4906367;29;20044;-74
2022/03/25 00:46:45;;;;;;;10.88;5.28;;;9.70;49.50;;;;;;4899567;29;22449;-74
2022/03/25 00:49:12;;;;;;;14.73;5.53;;;9.60;50.00;;;;;;4907831;29;22334;-74
2022/03/25 00:51:39;;;;;;;14.18;4.80;;;9.60;49.70;;;;;;4923968;28;20754;-74
2022/03/25 00:54:07;;;;;;;14.77;5.25;;;9.50;50.50;;;;;;4913938;28;20060;-74
2022/03/25 00:56:34;;;;;;;13.38;4.72;;;9.20;50.70;;;;;;4925558;28;20639;-74
2022/03/25 00:59:01;;;;;;;14.45;5.47;;;9.30;50.90;;;;;;4920413;28;20060;-74
2022/03/25 01:01:28;;;;;;;13.95;5.60;;;9.10;51.10;;;;;;4897109;29;20055;-74
2022/03/25 01:03:57;;;;;;;16.23;6.45;;;9.20;51.20;;;;;;4925456;29;20050;-74
2022/03/25 01:06:25;;;;;;;16.35;5.18;;;9.30;51.10;;;;;;4909626;29;20783;-76
2022/03/25 01:08:52;;;;;;;16.10;6.90;;;9.30;51.10;;;;;;4915084;29;20089;-74
2022/03/25 01:11:19;;;;;;;19.73;7.20;;;9.20;51.30;;;;;;4900183;29;20058;-74
2022/03/25 01:13:46;;;;;;;21.55;7.40;;;9.30;50.40;;;;;;4915114;29;20094;-74
2022/03/25 01:16:13;;;;;;;21.73;7.53;;;9.50;50.40;;;;;;4901497;29;20927;-73
2022/03/25 01:18:42;;;;;;;22.15;8.05;;;9.50;49.80;;;;;;4901806;29;20134;-74
2022/03/25 01:21:09;;;;;;;18.85;6.85;;;9.00;51.20;;;;;;4901381;29;20047;-74
2022/03/25 01:23:36;;;;;;;21.67;7.47;;;9.00;51.20;;;;;;4899834;29;22643;-74
2022/03/25 01:26:04;;;;;;;22.98;7.28;;;9.20;51.10;;;;;;4899028;29;20047;-74
2022/03/25 01:28:34;;;;;;;18.40;7.50;;;9.30;50.80;;;;;;4914154;29;20072;-74
2022/03/25 01:31:03;;;;;;;20.52;7.50;;;9.10;51.10;;;;;;4903555;29;20063;-74
2022/03/25 01:33:33;;;;;;;20.27;7.20;;;8.80;51.60;;;;;;4900447;29;20131;-74
2022/03/25 01:36:01;;;;;;;22.05;8.20;;;8.70;52.70;;;;;;4906716;29;20059;-74
2022/03/25 01:38:28;;;;;;;19.98;7.45;;;8.70;52.10;;;;;;4896695;29;20040;-74
2022/03/25 01:40:58;;;;;;;17.17;7.47;;;8.80;52.20;;;;;;4891576;29;20058;-74
2022/03/25 01:43:25;;;;;;;18.70;7.20;;;8.90;51.40;;;;;;4918616;29;22475;-74
2022/03/25 01:45:54;;;;;;;22.67;7.97;;;9.00;51.10;;;;;;4917895;29;20138;-74
2022/03/25 01:48:21;;;;;;;21.20;7.22;;;8.90;51.60;;;;;;4882804;29;20048;-74
2022/03/25 01:50:49;;;;;;;17.00;7.40;;;8.90;51.50;;;;;;4916364;29;20056;-74
2022/03/25 01:53:18;;;;;;;20.65;7.65;;;8.80;51.80;;;;;;4914447;29;20062;-74
2022/03/25 01:55:50;;;;;;;19.20;7.40;;;8.90;51.50;;;;;;4916161;29;21134;-74
2022/03/25 01:58:18;;;;;;;21.93;7.90;;;8.80;51.70;;;;;;4912475;29;20183;-74
2022/03/25 02:00:46;;;;;;;24.13;8.18;;;8.80;51.60;;;;;;4902278;29;20948;-74
2022/03/25 02:03:16;;;;;;;21.75;7.82;;;8.60;52.40;;;;;;4922078;29;20050;-74
2022/03/25 02:05:47;;;;;;;20.38;7.35;;;8.50;52.40;;;;;;4902433;29;20060;-74
2022/03/25 02:08:15;;;;;;;20.17;7.50;;;8.20;53.40;;;;;;4900577;29;20058;-74
2022/03/25 02:10:43;;;;;;;19.90;7.57;;;8.40;53.30;;;;;;4896658;29;20048;-74
2022/03/25 02:13:11;;;;;;;22.88;7.80;;;8.20;53.60;;;;;;4904329;29;20050;-74
2022/03/25 02:15:43;;;;;;;18.00;7.32;;;8.40;53.40;;;;;;4895371;29;20055;-74
2022/03/25 02:18:14;;;;;;;22.45;8.38;;;8.50;52.90;;;;;;4923091;29;20047;-74
2022/03/25 02:20:42;;;;;;;23.40;8.10;;;8.40;53.70;;;;;;4905536;29;20062;-74
2022/03/25 02:23:12;;;;;;;26.25;9.10;;;8.30;53.50;;;;;;4901218;29;20056;-74
2022/03/25 02:25:40;;;;;;;29.77;8.80;;;8.50;53.10;;;;;;4919238;29;20151;-74
2022/03/25 02:28:09;;;;;;;24.05;8.85;;;8.30;53.40;;;;;;4920669;29;20516;-74
2022/03/25 02:30:38;;;;;;;25.58;8.93;;;8.30;53.70;;;;;;4887771;29;20044;-74
2022/03/25 02:33:07;;;;;;;28.15;10.25;;;8.40;53.20;;;;;;4904115;29;20130;-74
2022/03/25 02:35:44;;;;;;;23.90;10.07;;;8.50;53.10;;;;;;4917893;29;20060;-74
2022/03/25 02:38:22;;;;;;;30.50;8.32;;;8.40;52.90;;;;;;4905790;29;20130;-74
2022/03/25 02:40:50;;;;;;;23.90;8.00;;;8.40;52.90;;;;;;4895727;29;20048;-74
2022/03/25 02:43:18;;;;;;;21.83;7.82;;;8.40;53.00;;;;;;4922526;29;20126;-74
2022/03/25 02:45:59;;;;;;;24.88;8.23;;;8.30;53.10;;;;;;4890383;29;20051;-74
2022/03/25 02:48:27;;;;;;;28.42;8.65;;;8.50;52.80;;;;;;4892325;29;20150;-74
2022/03/25 02:50:54;;;;;;;23.42;8.77;;;8.20;53.80;;;;;;4893288;29;20058;-74
2022/03/25 02:53:24;;;;;;;24.70;8.10;;;7.90;54.20;;;;;;4917042;29;20467;-74
2022/03/25 02:55:51;;;;;;;22.20;8.38;;;8.10;54.00;;;;;;4902380;29;20063;-74
2022/03/25 02:58:19;;;;;;;24.40;9.20;;;8.10;54.00;;;;;;4905522;29;20039;-74
2022/03/25 03:00:48;;;;;;;23.45;7.50;;;7.80;54.60;;;;;;4918236;29;20550;-74
2022/03/25 03:03:15;;;;;;;24.08;8.38;;;7.80;54.60;;;;;;4916686;29;20052;-74
2022/03/25 03:05:42;;;;;;;25.40;8.50;;;7.80;54.80;;;;;;4899038;29;20052;-74
2022/03/25 03:08:09;;;;;;;23.67;7.68;;;7.70;55.10;;;;;;4915743;29;20048;-74
2022/03/25 03:10:36;;;;;;;25.35;8.27;;;7.90;55.10;;;;;;4916271;29;20135;-74
2022/03/25 03:13:04;;;;;;;23.75;8.32;;;7.40;55.70;;;;;;4899472;29;20043;-74
2022/03/25 03:15:31;;;;;;;21.13;7.55;;;7.30;56.40;;;;;;4916022;29;20865;-73
2022/03/25 03:17:58;;;;;;;17.75;7.28;;;7.60;55.60;;;;;;4903876;29;20531;-74
2022/03/25 03:20:26;;;;;;;27.05;8.02;;;7.50;55.80;;;;;;4916024;29;20051;-74
2022/03/25 03:22:55;;;;;;;22.83;7.60;;;7.20;56.60;;;;;;4920692;29;20079;-74
2022/03/25 03:25:22;;;;;;;22.48;7.65;;;7.50;55.90;;;;;;4919708;29;20071;-74
2022/03/25 03:27:49;;;;;;;17.88;7.50;;;7.70;55.60;;;;;;4907526;29;20578;-74
2022/03/25 03:30:16;;;;;;;22.02;7.72;;;7.80;55.00;;;;;;4899786;29;20052;-74
2022/03/25 03:32:43;;;;;;;22.60;7.82;;;7.80;54.60;;;;;;4885477;29;20126;-74
2022/03/25 03:35:11;;;;;;;20.10;7.25;;;7.80;54.70;;;;;;4904024;29;20062;-74
2022/03/25 03:37:43;;;;;;;20.35;6.78;;;7.60;55.10;;;;;;4914374;29;20114;-74
2022/03/25 03:40:12;;;;;;;22.30;7.93;;;7.60;55.00;;;;;;4901138;29;20044;-74
2022/03/25 03:42:39;;;;;;;19.83;6.80;;;7.60;54.90;;;;;;4902033;29;20123;-74
2022/03/25 03:45:08;;;;;;;21.98;6.97;;;7.80;54.70;;;;;;4918961;29;21103;-74
2022/03/25 03:47:36;;;;;;;18.48;6.90;;;7.70;54.90;;;;;;4887876;29;20075;-74
2022/03/25 03:50:04;;;;;;;22.10;6.68;;;7.70;54.40;;;;;;4919865;29;20052;-74
2022/03/25 03:52:32;;;;;;;19.65;6.72;;;7.80;55.30;;;;;;4920368;29;20143;-74
2022/03/25 03:55:07;;;;;;;21.38;7.68;;;7.70;54.90;;;;;;4900310;29;20060;-74
2022/03/25 03:57:38;;;;;;;18.70;6.53;;;7.60;54.90;;;;;;4914834;29;20060;-74
2022/03/25 04:00:11;;;;;;;15.40;6.10;;;7.70;55.00;;;;;;4918168;29;20471;-74
2022/03/25 04:02:44;;;;;;;15.85;5.97;;;7.50;55.20;;;;;;4914944;29;22443;-74
2022/03/25 04:05:12;;;;;;;18.58;6.45;;;7.70;55.00;;;;;;4893664;29;20677;-74
2022/03/25 04:07:41;;;;;;;18.65;5.85;;;7.70;54.90;;;;;;4902473;29;20122;-74
2022/03/25 04:10:08;;;;;;;17.98;6.90;;;7.50;55.40;;;;;;4918460;29;20056;-74
2022/03/25 04:12:35;;;;;;;14.48;5.07;;;7.70;55.10;;;;;;4916731;29;20097;-73
2022/03/25 04:15:04;;;;;;;15.57;6.00;;;7.60;54.70;;;;;;4915694;29;20063;-74
2022/03/25 04:17:31;;;;;;;13.10;5.40;;;7.40;55.10;;;;;;4901715;29;20052;-74
2022/03/25 04:19:58;;;;;;;17.13;5.25;;;7.50;55.10;;;;;;4917468;29;20067;-74
2022/03/25 04:22:25;;;;;;;14.73;4.78;;;7.60;54.70;;;;;;4900390;29;20114;-74
2022/03/25 04:24:55;;;;;;;12.77;4.50;;;7.60;54.80;;;;;;4898598;29;20059;-74
2022/03/25 04:27:23;;;;;;;18.02;5.30;;;7.30;55.50;;;;;;4918687;29;20122;-74
2022/03/25 04:29:50;;;;;;;14.05;5.28;;;7.40;55.50;;;;;;4883273;29;20048;-74
2022/03/25 04:32:17;;;;;;;18.80;5.53;;;7.30;55.60;;;;;;4901773;29;20139;-74
2022/03/25 04:34:44;;;;;;;18.98;5.25;;;7.30;56.10;;;;;;4884709;29;20097;-74
2022/03/25 04:37:11;;;;;;;15.35;5.97;;;7.40;55.70;;;;;;4904646;29;20111;-74
2022/03/25 04:39:39;;;;;;;15.45;5.47;;;7.40;55.50;;;;;;4914827;29;20055;-73
2022/03/25 04:42:07;;;;;;;14.23;5.50;;;7.30;56.00;;;;;;4905615;29;20055;-74
2022/03/25 04:44:35;;;;;;;17.35;5.28;;;7.10;56.10;;;;;;4896822;29;20657;-74
2022/03/25 04:47:03;;;;;;;15.10;5.82;;;7.20;55.90;;;;;;4884310;29;20063;-74
2022/03/25 04:49:30;;;;;;;16.65;5.80;;;7.10;56.40;;;;;;4885812;29;20059;-74
2022/03/25 04:51:57;;;;;;;18.52;6.07;;;7.00;57.00;;;;;;4900545;29;20748;-74
2022/03/25 04:54:24;;;;;;;20.90;6.22;;;7.10;57.40;;;;;;4921761;29;20103;-74
2022/03/25 04:56:51;;;;;;;14.10;5.50;;;7.00;57.50;;;;;;4893897;29;20047;-74
2022/03/25 04:59:18;;;;;;;28.92;7.35;;;7.10;56.90;;;;;;4915189;29;20171;-74
2022/03/25 05:01:45;;;;;;;20.77;6.80;;;7.30;56.10;;;;;;4916846;29;20052;-74
2022/03/25 05:04:12;;;;;;;20.75;7.07;;;7.30;56.60;;;;;;4895960;29;20058;-74
2022/03/25 05:06:39;;;;;;;16.80;6.43;;;7.20;56.30;;;;;;4905146;29;20060;-74
2022/03/25 05:09:06;;;;;;;19.55;5.97;;;7.30;55.90;;;;;;4914152;29;20052;-74
2022/03/25 05:11:33;;;;;;;23.45;6.85;;;7.30;56.40;;;;;;4899286;29;22472;-74
2022/03/25 05:14:00;;;;;;;16.95;5.85;;;7.20;56.40;;;;;;4899588;29;20059;-74
2022/03/25 05:16:27;;;;;;;17.30;6.30;;;7.40;56.20;;;;;;4915561;29;20495;-74
2022/03/25 05:18:55;;;;;;;22.75;6.20;;;7.30;56.20;;;;;;4916472;29;20051;-74
2022/03/25 05:21:22;;;;;;;18.80;6.82;;;7.20;56.50;;;;;;4899158;29;20055;-74
2022/03/25 05:23:49;;;;;;;23.13;7.65;;;7.30;56.70;;;;;;4894131;29;20056;-75
2022/03/25 05:26:16;;;;;;;30.83;8.52;;;7.40;56.40;;;;;;4913524;29;20052;-74
2022/03/25 05:28:48;;;;;;;22.42;7.75;;;7.60;56.30;;;;;;4900718;29;20044;-75
2022/03/25 05:31:15;;;;;;;22.45;7.60;;;7.50;56.60;;;;;;4899043;29;20180;-74
2022/03/25 05:33:42;;;;;;;28.25;8.10;;;7.20;57.00;;;;;;4899826;29;20055;-76
2022/03/25 05:36:10;;;;;;;22.65;8.05;;;7.50;57.10;;;;;;4903115;29;20044;-74
2022/03/25 05:38:37;;;;;;;23.15;8.23;;;7.50;56.70;;;;;;4920700;29;22545;-74
2022/03/25 05:41:04;;;;;;;25.98;9.32;;;7.70;57.10;;;;;;4891653;29;20052;-75
2022/03/25 05:43:31;;;;;;;36.08;10.07;;;7.50;57.20;;;;;;4908139;29;20040;-74
2022/03/25 05:45:58;;;;;;;26.30;9.60;;;7.60;57.40;;;;;;4919558;29;20043;-74
2022/03/25 05:48:25;;;;;;;22.27;9.52;;;7.70;57.30;;;;;;4903557;29;20058;-74
2022/03/25 05:50:52;;;;;;;26.42;9.65;;;7.60;57.50;;;;;;4906816;29;20048;-74
2022/03/25 05:53:19;;;;;;;33.03;10.18;;;7.80;57.70;;;;;;4921912;29;20753;-74
2022/03/25 05:55:46;;;;;;;32.75;11.25;;;7.90;56.90;;;;;;4904150;29;20882;-74
2022/03/25 05:58:13;;;;;;;30.75;10.30;;;8.20;56.60;;;;;;4903682;29;20111;-74
2022/03/25 06:00:41;;;;;;;26.17;10.57;;;8.20;56.50;;;;;;4889663;29;20066;-74
2022/03/25 06:03:10;;;;;;;21.77;9.85;;;8.40;56.30;;;;;;4924567;29;20040;-74
2022/03/25 06:05:37;;;;;;;30.40;9.82;;;8.60;56.00;;;;;;4903343;29;20048;-74
2022/03/25 06:08:04;;;;;;;28.40;9.43;;;8.70;55.80;;;;;;4903063;29;20142;-74
2022/03/25 06:10:31;;;;;;;40.70;13.55;;;8.70;55.70;;;;;;4891356;29;20052;-74
2022/03/25 06:12:58;;;;;;;34.88;12.75;;;8.90;55.80;;;;;;4901259;29;20056;-74
2022/03/25 06:15:25;;;;;;;32.65;14.15;;;9.00;55.40;;;;;;4900625;29;20051;-74
2022/03/25 06:17:52;;;;;;;27.58;13.57;;;9.00;55.50;;;;;;4913850;29;22155;-74
2022/03/25 06:20:27;;;;;;;25.27;11.48;;;9.10;55.50;;;;;;4917779;29;20054;-74
2022/03/25 06:22:55;;;;;;;28.58;11.80;;;9.30;55.40;;;;;;4917775;29;20056;-74
2022/03/25 06:25:22;;;;;;;28.40;12.18;;;9.40;55.10;;;;;;4901384;29;20048;-74
2022/03/25 06:27:49;;;;;;;29.48;11.38;;;9.50;55.70;;;;;;4917738;29;20052;-74
2022/03/25 06:30:17;;;;;;;33.20;10.63;;;9.60;55.90;;;;;;4915738;29;20126;-74
2022/03/25 06:32:44;;;;;;;35.28;11.00;;;9.50;56.10;;;;;;4919351;29;20056;-74
2022/03/25 06:35:13;;;;;;;20.92;10.10;;;9.70;55.60;;;;;;4914231;29;20078;-76
2022/03/25 06:37:41;;;;;;;35.38;10.55;;;9.70;55.60;;;;;;4884737;29;20055;-74
2022/03/25 06:40:09;;;;;;;32.70;9.88;;;9.90;55.30;;;;;;4901874;29;20060;-74
2022/03/25 06:42:38;;;;;;;26.42;9.90;;;10.10;55.10;;;;;;4916007;29;20060;-74
2022/03/25 06:45:07;;;;;;;32.55;12.15;;;10.30;55.10;;;;;;4885856;29;20052;-74
2022/03/25 06:47:34;;;;;;;23.00;8.18;;;10.30;55.20;;;;;;4899486;29;21127;-74
2022/03/25 06:50:03;;;;;;;29.98;8.40;;;10.40;55.30;;;;;;4901907;29;20057;-74
2022/03/25 06:52:31;;;;;;;18.83;6.45;;;10.60;55.10;;;;;;4901598;29;20110;-74
2022/03/25 06:54:58;;;;;;;30.30;10.82;;;10.70;54.50;;;;;;4901477;29;20819;-74
2022/03/25 06:57:25;;;;;;;19.25;6.85;;;10.80;54.60;;;;;;4919882;29;20052;-74
2022/03/25 06:59:53;;;;;;;18.60;6.13;;;11.00;53.40;;;;;;4917852;29;20054;-74
2022/03/25 07:02:20;;;;;;;18.10;6.32;;;11.10;52.70;;;;;;4880159;29;20130;-74
2022/03/25 07:04:48;;;;;;;18.90;5.90;;;11.10;51.70;;;;;;4899827;29;20047;-74
2022/03/25 07:07:19;;;;;;;14.63;5.65;;;11.20;51.50;;;;;;4859523;29;1174257;-74
2022/03/25 07:09:46;;;;;;;30.38;6.88;;;11.40;51.70;;;;;;4913932;29;20094;-73
2022/03/25 07:12:16;;;;;;;16.77;5.70;;;11.40;51.60;;;;;;4894584;29;20052;-74
2022/03/25 07:14:44;;;;;;;14.10;7.38;;;11.50;51.00;;;;;;4910874;29;21467;-74
2022/03/25 07:17:11;;;;;;;17.95;8.20;;;11.70;50.80;;;;;;4897055;29;20502;-74
2022/03/25 07:19:38;;;;;;;13.02;6.25;;;11.80;50.10;;;;;;4904637;29;20062;-74
2022/03/25 07:22:04;;;;;;;12.93;5.93;;;11.90;49.50;;;;;;4904665;29;21048;-74
2022/03/25 07:24:32;;;;;;;16.60;6.43;;;12.00;49.40;;;;;;4898775;29;20060;-74
2022/03/25 07:26:59;;;;;;;21.80;7.30;;;12.10;49.40;;;;;;4902134;29;20443;-74
2022/03/25 07:29:25;;;;;;;16.88;5.50;;;12.20;48.80;;;;;;4899639;29;20052;-74
2022/03/25 07:31:53;;;;;;;19.20;7.78;;;12.20;48.30;;;;;;4918629;29;20052;-74
2022/03/25 07:34:20;;;;;;;14.45;6.03;;;12.30;48.80;;;;;;4918466;29;20652;-74
2022/03/25 07:36:47;;;;;;;14.55;6.38;;;12.30;48.00;;;;;;4919621;29;20111;-74
2022/03/25 07:39:14;;;;;;;17.83;6.53;;;12.50;47.60;;;;;;4917798;29;22404;-74
2022/03/25 07:41:41;;;;;;;22.75;7.85;;;12.70;47.20;;;;;;4916431;29;20131;-74
2022/03/25 07:44:08;;;;;;;25.20;7.75;;;12.70;46.80;;;;;;4920163;29;20051;-74
2022/03/25 07:46:38;;;;;;;16.65;6.30;;;12.70;47.40;;;;;;4904517;29;20083;-74
2022/03/25 07:49:06;;;;;;;17.35;7.15;;;12.80;47.40;;;;;;4887666;29;20047;-74
2022/03/25 07:51:33;;;;;;;21.40;6.68;;;13.00;47.20;;;;;;4916704;29;24007;-74
2022/03/25 07:54:00;;;;;;;17.20;7.18;;;13.00;46.90;;;;;;4927884;29;20490;-74
2022/03/25 07:56:28;;;;;;;14.63;5.70;;;13.10;46.30;;;;;;4917208;29;20078;-74
2022/03/25 07:58:55;;;;;;;14.52;5.95;;;13.20;45.80;;;;;;4886706;29;20058;-74
2022/03/25 08:01:22;;;;;;;14.05;6.20;;;13.00;45.50;;;;;;4893861;29;20064;-74
2022/03/25 08:03:50;;;;;;;13.55;5.50;;;13.10;45.60;;;;;;4915383;29;20130;-74
2022/03/25 08:06:17;;;;;;;14.65;6.15;;;13.20;45.30;;;;;;4919345;29;20095;-74
2022/03/25 08:08:47;;;;;;;13.18;4.47;;;13.40;45.40;;;;;;4900730;29;20071;-74
2022/03/25 08:11:14;;;;;;;13.27;5.85;;;13.40;44.60;;;;;;4898047;29;20055;-74
2022/03/25 08:13:41;;;;;;;11.32;5.18;;;13.50;44.90;;;;;;4901451;29;20043;-75
2022/03/25 08:16:08;;;;;;;16.50;4.78;;;13.60;45.00;;;;;;4919553;29;20063;-74
2022/03/25 08:18:35;;;;;;;14.90;6.00;;;13.60;44.10;;;;;;4916440;29;20055;-74
2022/03/25 08:21:02;;;;;;;14.07;5.32;;;13.80;44.40;;;;;;4903584;29;21038;-74
2022/03/25 08:29:01;;;;;;;14.23;5.43;;;14.30;42.70;;;;;;4899035;29;20063;-74
2022/03/25 08:31:48;;;;;;;18.77;5.35;;;14.30;42.30;;;;;;4916454;29;20103;-74
2022/03/25 08:34:15;;;;;;;12.60;5.50;;;14.30;43.40;;;;;;4893137;29;20143;-74
2022/03/25 08:36:44;;;;;;;13.98;5.55;;;14.20;43.10;;;;;;4895278;29;20042;-74
2022/03/25 08:39:11;;;;;;;15.35;5.32;;;14.20;43.30;;;;;;4915861;29;20107;-74
2022/03/25 08:41:39;;;;;;;13.82;5.90;;;14.20;43.40;;;;;;4900868;29;20052;-75
2022/03/25 08:44:06;;;;;;;12.85;5.45;;;14.40;43.70;;;;;;4917279;29;20052;-74
2022/03/25 08:46:34;;;;;;;12.05;5.32;;;14.60;43.40;;;;;;4897759;29;20052;-74
2022/03/25 08:49:07;;;;;;;13.93;5.40;;;14.80;43.60;;;;;;4915629;29;20056;-74
2022/03/25 08:51:34;;;;;;;15.80;5.38;;;15.00;43.00;;;;;;4915340;29;20052;-74
2022/03/25 08:54:01;;;;;;;12.18;4.60;;;14.80;43.00;;;;;;4898274;29;23017;-74
2022/03/25 08:56:28;;;;;;;11.38;4.35;;;14.90;43.50;;;;;;4887143;29;22612;-74
2022/03/25 08:58:58;;;;;;;9.75;4.22;;;14.90;42.30;;;;;;4914070;29;20056;-74
2022/03/25 09:01:26;;;;;;;10.18;4.10;;;14.90;42.20;;;;;;4913864;29;20055;-74
2022/03/25 09:03:53;;;;;;;11.07;4.55;;;14.80;42.80;;;;;;4898155;29;20727;-74
2022/03/25 09:06:21;;;;;;;36.95;5.47;;;15.10;42.50;;;;;;4897221;29;20829;-75
2022/03/25 09:08:49;;;;;;;10.30;4.22;;;15.20;41.70;;;;;;4898392;29;20051;-74
2022/03/25 09:11:16;;;;;;;14.00;5.68;;;15.30;42.00;;;;;;4907621;29;20044;-74
2022/03/25 09:13:43;;;;;;;13.20;5.53;;;15.60;41.60;;;;;;4914212;29;20048;-74
2022/03/25 09:16:13;;;;;;;11.80;5.38;;;15.60;42.10;;;;;;4899058;29;20778;-75
2022/03/25 09:18:40;;;;;;;12.20;5.25;;;15.50;40.80;;;;;;4899406;29;20089;-75
2022/03/25 09:21:07;;;;;;;15.23;5.30;;;15.70;41.20;;;;;;4900643;29;20048;-75
2022/03/25 09:23:34;;;;;;;16.20;6.28;;;15.30;41.80;;;;;;4899817;29;20062;-75
2022/03/25 09:26:02;;;;;;;13.10;5.20;;;15.40;42.20;;;;;;4898029;29;20418;-74
2022/03/25 09:28:30;;;;;;;15.13;5.00;;;15.60;42.20;;;;;;4915439;29;20051;-75
2022/03/25 09:30:57;;;;;;;12.93;5.47;;;15.60;40.90;;;;;;4891420;29;20066;-75
2022/03/25 09:33:24;;;;;;;15.55;6.45;;;15.70;41.80;;;;;;4914980;29;20051;-75
2022/03/25 09:35:51;;;;;;;13.30;4.85;;;16.00;41.20;;;;;;4912751;29;20066;-75
2022/03/25 09:38:18;;;;;;;11.75;4.45;;;16.10;40.60;;;;;;4898930;29;20063;-75
2022/03/25 09:40:47;;;;;;;13.15;5.68;;;16.10;40.10;;;;;;4897244;29;20507;-75
2022/03/25 09:43:17;;;;;;;13.02;4.55;;;16.10;40.00;;;;;;4894257;29;20059;-76
2022/03/25 09:45:44;;;;;;;10.38;4.60;;;16.10;40.00;;;;;;4913851;29;20083;-76
2022/03/25 09:48:13;;;;;;;11.50;4.45;;;16.10;40.60;;;;;;4884268;29;20048;-76
2022/03/25 09:50:40;;;;;;;10.77;4.65;;;16.20;40.60;;;;;;4916036;29;20055;-76
2022/03/25 09:53:29;;;;;;;11.95;5.00;;;16.40;40.90;;;;;;4883659;29;20056;-76
2022/03/25 09:55:58;;;;;;;13.05;5.43;;;16.60;40.90;;;;;;4911182;29;20566;-76
2022/03/25 09:58:28;;;;;;;13.50;5.80;;;16.50;39.60;;;;;;4916914;29;20498;-76
2022/03/25 10:00:56;;;;;;;13.07;5.65;;;16.70;40.30;;;;;;4901122;29;20051;-76
2022/03/25 10:03:26;;;;;;;18.05;7.22;;;16.70;39.50;;;;;;4913932;29;20111;-76
2022/03/25 10:05:55;;;;;;;11.65;6.10;;;16.80;40.00;;;;;;4918746;29;20055;-76
2022/03/25 10:08:44;;;;;;;11.65;4.68;;;16.90;39.20;;;;;;4916051;29;20083;-76
2022/03/25 10:11:30;;;;;;;14.10;6.07;;;16.90;39.50;;;;;;4917371;29;22661;-75
2022/03/25 10:14:18;;;;;;;23.20;6.32;;;17.10;39.10;;;;;;4900023;29;20067;-76
2022/03/25 10:16:49;;;;;;;12.27;5.40;;;17.10;39.00;;;;;;4901021;29;20099;-75
2022/03/25 10:19:17;;;;;;;15.10;4.75;;;17.00;38.90;;;;;;4884957;29;20062;-76
2022/03/25 10:21:59;;;;;;;15.43;7.07;;;17.10;39.10;;;;;;4915573;29;20137;-76
2022/03/25 10:24:53;;;;;;;12.13;5.18;;;17.10;39.00;;;;;;4918277;29;21043;-76
2022/03/25 10:27:29;;;;;;;9.75;4.57;;;17.10;39.20;;;;;;4918987;29;20764;-78
2022/03/25 10:29:56;;;;;;;11.90;5.30;;;17.20;39.00;;;;;;4919991;29;20047;-78
2022/03/25 10:32:25;;;;;;;13.00;5.13;;;17.30;38.80;;;;;;4922178;29;20048;-78
2022/03/25 10:35:10;;;;;;;14.80;4.95;;;17.40;39.30;;;;;;4922255;29;20207;-78
2022/03/25 10:37:58;;;;;;;10.95;4.22;;;17.60;38.20;;;;;;4926288;29;20055;-78
2022/03/25 10:40:25;;;;;;;12.50;5.25;;;17.50;37.40;;;;;;4903160;29;20052;-76
2022/03/25 10:43:05;;;;;;;12.23;4.97;;;17.20;38.20;;;;;;4914483;29;20186;-76
2022/03/25 10:45:34;;;;;;;15.45;5.45;;;17.50;38.10;;;;;;4907870;29;20914;-75
2022/03/25 10:48:18;;;;;;;12.48;5.28;;;17.50;38.70;;;;;;4895684;29;20115;-76
2022/03/25 10:51:01;;;;;;;10.50;4.93;;;17.50;38.60;;;;;;4909580;29;22617;-76
2022/03/25 10:53:30;;;;;;;14.35;4.88;;;17.50;38.40;;;;;;4913249;29;20051;-79
2022/03/25 10:56:03;;;;;;;14.82;5.15;;;17.80;38.20;;;;;;4887383;29;20123;-79
2022/03/25 10:58:30;;;;;;;10.65;5.13;;;18.20;37.60;;;;;;4903656;29;20533;-79
2022/03/25 11:00:59;;;;;;;14.98;5.70;;;18.30;38.20;;;;;;4901502;29;20154;-78
2022/03/25 11:03:26;;;;;;;15.02;5.28;;;18.10;37.40;;;;;;4902499;29;20051;-79
2022/03/25 11:05:54;;;;;;;13.85;5.25;;;18.10;37.30;;;;;;4902547;29;20047;-79
2022/03/25 11:08:22;;;;;;;12.13;4.85;;;18.30;37.80;;;;;;4917512;29;20052;-77
2022/03/25 11:10:53;;;;;;;13.75;5.07;;;18.40;37.60;;;;;;4914269;29;20059;-77
2022/03/25 11:13:22;;;;;;;10.15;4.63;;;18.50;36.70;;;;;;4895164;29;20055;-76
2022/03/25 11:15:52;;;;;;;11.77;5.15;;;18.50;37.60;;;;;;4896343;29;20179;-76
2022/03/25 11:18:21;;;;;;;14.55;5.95;;;18.50;37.60;;;;;;4913707;29;20055;-76
2022/03/25 11:20:50;;;;;;;12.65;5.18;;;18.60;36.50;;;;;;4916957;29;20044;-77
2022/03/25 11:23:23;;;;;;;16.40;5.90;;;18.70;36.90;;;;;;4917761;29;20044;-77
2022/03/25 11:25:53;;;;;;;13.68;5.57;;;19.00;36.10;;;;;;4917887;29;20055;-78
2022/03/25 11:28:29;;;;;;;11.75;4.85;;;18.80;36.10;;;;;;4899625;29;22533;-77
2022/03/25 11:31:05;;;;;;;10.73;4.43;;;19.00;36.20;;;;;;4881023;29;20106;-80
2022/03/25 11:33:52;;;;;;;9.82;4.47;;;19.10;34.80;;;;;;4889666;29;20060;-80
2022/03/25 11:36:19;;;;;;;11.63;3.90;;;19.10;34.90;;;;;;4900228;29;20055;-77
2022/03/25 11:38:46;;;;;;;9.93;4.25;;;19.10;35.60;;;;;;4895016;29;22640;-76
2022/03/25 11:41:25;;;;;;;10.07;4.15;;;19.20;34.20;;;;;;4897016;29;20866;-76
2022/03/25 11:44:14;;;;;;;13.25;4.72;;;19.40;34.80;;;;;;4895284;29;20051;-75
2022/03/25 11:46:59;;;;;;;12.98;4.93;;;19.50;35.10;;;;;;4883619;29;20051;-75
2022/03/25 11:49:31;;;;;;;11.93;4.75;;;19.30;34.30;;;;;;4894052;29;20827;-75
2022/03/25 11:52:17;;;;;;;10.32;4.82;;;19.20;35.80;;;;;;4916697;29;22487;-76
2022/03/25 11:54:44;;;;;;;12.82;4.45;;;19.30;34.80;;;;;;4903808;29;20059;-76
2022/03/25 11:57:26;;;;;;;9.00;4.63;;;19.50;34.30;;;;;;4908586;29;20059;-76
2022/03/25 11:59:59;;;;;;;10.50;4.67;;;19.70;34.60;;;;;;4901651;29;20673;-76
2022/03/25 12:02:36;;;;;;;10.38;4.28;;;19.50;34.20;;;;;;4899085;29;20079;-76
2022/03/25 12:05:24;;;;;;;13.95;4.65;;;19.70;33.80;;;;;;4900390;29;20123;-76
2022/03/25 12:08:27;;;;;;;12.15;4.90;;;19.80;33.00;;;;;;4915236;29;22569;-76
2022/03/25 12:10:56;;;;;;;11.00;4.53;;;19.60;33.40;;;;;;4912129;29;20062;-76
2022/03/25 12:13:43;;;;;;;9.82;4.65;;;19.80;33.60;;;;;;4901593;29;20074;-77
2022/03/25 12:16:11;;;;;;;11.23;4.80;;;19.90;32.90;;;;;;4898582;29;20060;-77
2022/03/25 12:18:46;;;;;;;10.10;3.92;;;20.00;33.20;;;;;;4901493;29;20229;-77
2022/03/25 12:21:25;;;;;;;6.60;4.20;;;20.00;32.60;;;;;;4886937;29;20190;-77
2022/03/25 12:24:00;;;;;;;10.70;4.63;;;19.60;33.10;;;;;;4904378;29;20136;-76
2022/03/25 12:26:32;;;;;;;10.95;4.20;;;19.60;33.60;;;;;;4898412;29;20051;-76
2022/03/25 12:28:59;;;;;;;8.88;3.90;;;19.80;33.00;;;;;;4901904;29;20048;-76
2022/03/25 12:31:28;;;;;;;9.65;3.63;;;19.90;33.10;;;;;;4916386;29;20083;-77
2022/03/25 12:33:58;;;;;;;13.55;3.75;;;19.80;33.20;;;;;;4893254;29;20529;-77
2022/03/25 12:36:35;;;;;;;8.23;4.43;;;19.70;32.50;;;;;;4898649;29;20051;-77
2022/03/25 12:39:02;;;;;;;9.07;4.13;;;19.70;32.60;;;;;;4887018;29;20056;-77
2022/03/25 12:41:31;;;;;;;10.27;4.22;;;19.70;32.90;;;;;;4887168;29;20079;-77
2022/03/25 12:44:24;;;;;;;8.18;3.80;;;19.90;31.80;;;;;;4916687;29;20051;-76
2022/03/25 12:46:52;;;;;;;8.23;4.00;;;19.70;31.80;;;;;;4918610;29;20047;-76
2022/03/25 12:49:22;;;;;;;13.15;4.30;;;19.90;32.00;;;;;;4899329;29;20063;-77
2022/03/25 12:51:56;;;;;;;10.27;3.53;;;19.90;32.90;;;;;;4917532;29;22490;-76
2022/03/25 12:54:24;;;;;;;9.23;3.05;;;20.10;33.40;;;;;;4897799;29;20208;-75
2022/03/25 12:57:05;;;;;;;9.02;3.67;;;20.20;31.40;;;;;;4898544;29;20245;-75
2022/03/25 12:59:57;;;;;;;8.65;3.25;;;20.20;31.00;;;;;;4886367;29;20151;-76
2022/03/25 13:02:35;;;;;;;7.78;3.45;;;20.20;31.70;;;;;;4917940;29;20115;-77